Hamilton, NY

11:32 AM EDT on August 20, 2014 (GMT -0400)
White Eagle Farm | Change Station
CLOSE
Current Station
Personal Weather Station
Location: Hamilton, NY
Elevation: 1132 ft
Nearby Weather Stations

Elev 1132 ft 42.84 °N, 75.57 °W | Updated 2 minutes ago

Clear
Clear
72.3 °F
Feels Like 71 °F
N
6.0
Wind Variable Wind from SSW
Gusts 6.0 mph

Today
High -- | Low -- °F
--% Chance of Precip.
Yesterday
High -- | Low -- °F
Precip. -- in
6:13 AM 7:56 PM
Waning Crescent, 21% visible
Pressure 29.96 in
Visibility 10.0 miles
Clouds Clear
Heat Index 71 °F
Dew Point 68 °F
Humidity 85%
Rainfall 0.00 in
Snow Depth Not available.
UV 7 out of 12
Pollen 8.00 out of 12
Ozone Good
PM2.5 Moderate
Flu Activity Not available.
METAR KRME 201453Z 11007KT 10SM CLR 23/18 A2997 RMK AO2 SLP145 T02280178 53005

More Conditions Fewer Conditions

Pressure 29.96 in
Visibility 10.0 miles
Clouds Clear
Heat Index 71 °F
Dew Point 68 °F
Humidity 85%
Rainfall 0.00 in
Snow Depth Not available.
UV 7 out of 12
Pollen 8.00 out of 12
Ozone Good
PM2.5 Moderate
Flu Activity Not available.
METAR KRME 201453Z 11007KT 10SM CLR 23/18 A2997 RMK AO2 SLP145 T02280178 53005

More Conditions Fewer Conditions

10-Day Weather Forecast

Almanac

Astronomy

Aug. 20, 2014 Rise Set
Actual Time 6:13 AM EDT 7:56 PM EDT
Civil Twilight 5:43 AM EDT 8:26 PM EDT
Nautical Twilight 5:07 AM EDT 9:02 PM EDT
Astronomical Twilight 4:27 AM EDT 9:41 PM EDT
Moon 1:49 AM EDT 4:42 PM EDT
Length of Visible Light 14h 42m
Length of Day
13h 42m
Tomorrow will be 2m 39s shorter.
Waning Crescent, 21% of the Moon is Illuminated
Today
Waning Crescent
Aug 25
New
Sep 2
First Quarter
Sep 8
Full
Sep 15
Last Quarter

Today's Extremes

State Highs State Lows

Community

WunderPhotos

Upload Photos

1,745,667 photos uploaded!

WunderBlogs® & News

Nearby

Air Quality

  Air Quality AQ Index Pollutant
Yesterday Good
PM2.5
Yesterday Good
OZONE
Current Moderate
PM2.5
Current Good
OZONE
Wednesday Good
PM2.5
Wednesday Good
OZONE

Snow Depth

Station Depth Elevation
No new snow has been reported.

Earthquake Activity

City Distance Mag. Time & Date
No recent earthquake activity has been reported nearby.
Minimum magnitude displayed is 2.5.

Coastal Water Temperatures

Place Temperature
No Stations Reporting

Nearby Weather Stations